GüvenlikHavalimanlarıHavayolları

Özbekistan’ın A320’si Minsk’te kara saplandı

Şeref SEZGİN

Özbekistan Havayolları’na ait Airbus A320 tipi yolcu uçağı, Rusya’da Minsk Havalimanı’na inişten sonra taksi yaparken kayarak kara saplandı. Kurtarma çalışmaları nedeniyle havalimanı bir süreliğine hava trafiğine kapatıldı.

Özbekistan Havayollarına ait A320 tipi uçak Minsk meydanına inişini tamamladıktan sonra 31 L pistini terk ederken kaymaya başladı. Pist dışına çıkan uçak, kara saplanarak durabildi. Pilotların normal taksi hızından biraz daha yüksek hıza sahip oldukları iddia edildi.

Uçak kara saplanırken havalimanı uçuşlara kapatılarak notam yayınlandı. Yolcular tahliye edildi.

Olay anında rapor edilen hava durumu (0836Z):

UMMS 170856Z 23009G13MPS 1100 1000E R31R/1000U R31L/1200U SHSN BLSN OVC003CB 00/00 Q0985 TEMPO 23010G15MPS 0500 +SHSN RMK QBB110

Temsili fotoğraf

İlgili Makaleler

Başa dön tuşu
Bağlantıyı kopyala